sensor_id;sensor_type;location;lat;lon;timestamp;P1;durP1;ratioP1;P2;durP2;ratioP2
19897;SDS011;10111;50.814;4.572;2023-02-12T00:02:18;23.47;;;13.70;;
19897;SDS011;10111;50.814;4.572;2023-02-12T00:04:43;24.03;;;13.93;;
19897;SDS011;10111;50.814;4.572;2023-02-12T00:07:11;23.50;;;13.53;;
19897;SDS011;10111;50.814;4.572;2023-02-12T00:09:37;20.40;;;12.87;;
19897;SDS011;10111;50.814;4.572;2023-02-12T00:12:02;20.23;;;12.67;;
19897;SDS011;10111;50.814;4.572;2023-02-12T00:14:28;19.77;;;12.63;;
19897;SDS011;10111;50.814;4.572;2023-02-12T00:16:54;21.87;;;13.73;;
19897;SDS011;10111;50.814;4.572;2023-02-12T00:19:19;18.47;;;12.50;;
19897;SDS011;10111;50.814;4.572;2023-02-12T00:21:45;20.40;;;12.83;;
19897;SDS011;10111;50.814;4.572;2023-02-12T00:24:10;24.47;;;13.53;;
19897;SDS011;10111;50.814;4.572;2023-02-12T00:26:36;22.90;;;12.13;;
19897;SDS011;10111;50.814;4.572;2023-02-12T00:29:02;18.77;;;12.43;;
19897;SDS011;10111;50.814;4.572;2023-02-12T00:31:28;20.20;;;12.13;;
19897;SDS011;10111;50.814;4.572;2023-02-12T00:33:55;16.80;;;10.90;;
19897;SDS011;10111;50.814;4.572;2023-02-12T00:36:22;18.30;;;12.10;;
19897;SDS011;10111;50.814;4.572;2023-02-12T00:38:50;19.17;;;11.80;;
19897;SDS011;10111;50.814;4.572;2023-02-12T00:41:17;24.27;;;13.93;;
19897;SDS011;10111;50.814;4.572;2023-02-12T00:43:43;15.97;;;11.40;;
19897;SDS011;10111;50.814;4.572;2023-02-12T00:46:09;17.77;;;11.53;;
19897;SDS011;10111;50.814;4.572;2023-02-12T00:48:35;16.53;;;10.60;;
19897;SDS011;10111;50.814;4.572;2023-02-12T00:51:02;18.87;;;11.00;;
19897;SDS011;10111;50.814;4.572;2023-02-12T00:53:29;18.67;;;11.90;;
19897;SDS011;10111;50.814;4.572;2023-02-12T00:55:55;24.60;;;13.20;;
19897;SDS011;10111;50.814;4.572;2023-02-12T00:58:21;19.33;;;12.77;;
19897;SDS011;10111;50.814;4.572;2023-02-12T01:00:47;17.53;;;12.07;;
19897;SDS011;10111;50.814;4.572;2023-02-12T01:03:13;18.87;;;11.67;;
19897;SDS011;10111;50.814;4.572;2023-02-12T01:05:39;17.77;;;11.70;;
19897;SDS011;10111;50.814;4.572;2023-02-12T01:08:05;19.33;;;11.83;;
19897;SDS011;10111;50.814;4.572;2023-02-12T01:10:30;16.23;;;10.80;;
19897;SDS011;10111;50.814;4.572;2023-02-12T01:12:56;21.67;;;11.90;;
19897;SDS011;10111;50.814;4.572;2023-02-12T01:15:22;19.90;;;12.77;;
19897;SDS011;10111;50.814;4.572;2023-02-12T01:17:51;20.70;;;12.00;;
19897;SDS011;10111;50.814;4.572;2023-02-12T01:20:18;19.90;;;12.23;;
19897;SDS011;10111;50.814;4.572;2023-02-12T01:22:45;19.00;;;11.97;;
19897;SDS011;10111;50.814;4.572;2023-02-12T01:25:11;18.10;;;11.73;;
19897;SDS011;10111;50.814;4.572;2023-02-12T01:27:37;15.87;;;11.00;;
19897;SDS011;10111;50.814;4.572;2023-02-12T01:30:04;18.07;;;11.50;;
19897;SDS011;10111;50.814;4.572;2023-02-12T01:32:33;18.87;;;11.80;;
19897;SDS011;10111;50.814;4.572;2023-02-12T01:34:59;19.77;;;12.03;;
19897;SDS011;10111;50.814;4.572;2023-02-12T01:37:25;20.60;;;12.27;;
19897;SDS011;10111;50.814;4.572;2023-02-12T01:39:50;20.63;;;13.67;;
19897;SDS011;10111;50.814;4.572;2023-02-12T01:42:16;17.90;;;12.20;;
19897;SDS011;10111;50.814;4.572;2023-02-12T01:47:36;18.83;;;12.33;;
19897;SDS011;10111;50.814;4.572;2023-02-12T01:50:04;16.10;;;11.10;;
19897;SDS011;10111;50.814;4.572;2023-02-12T01:52:33;22.73;;;12.17;;
19897;SDS011;10111;50.814;4.572;2023-02-12T01:55:01;19.23;;;11.93;;
19897;SDS011;10111;50.814;4.572;2023-02-12T01:57:30;18.87;;;11.77;;
19897;SDS011;10111;50.814;4.572;2023-02-12T01:59:58;19.67;;;12.80;;
19897;SDS011;10111;50.814;4.572;2023-02-12T02:02:25;20.90;;;13.13;;
19897;SDS011;10111;50.814;4.572;2023-02-12T02:04:53;18.63;;;11.60;;
19897;SDS011;10111;50.814;4.572;2023-02-12T02:07:22;26.53;;;13.43;;
19897;SDS011;10111;50.814;4.572;2023-02-12T02:09:48;19.53;;;12.80;;
19897;SDS011;10111;50.814;4.572;2023-02-12T02:12:14;20.33;;;13.53;;
19897;SDS011;10111;50.814;4.572;2023-02-12T02:14:58;20.87;;;13.57;;
19897;SDS011;10111;50.814;4.572;2023-02-12T02:24:00;25.83;;;15.43;;
19897;SDS011;10111;50.814;4.572;2023-02-12T02:29:00;25.80;;;16.13;;
19897;SDS011;10111;50.814;4.572;2023-02-12T02:31:41;25.30;;;16.63;;
19897;SDS011;10111;50.814;4.572;2023-02-12T02:34:27;25.23;;;16.47;;
19897;SDS011;10111;50.814;4.572;2023-02-12T02:37:03;25.90;;;15.57;;
19897;SDS011;10111;50.814;4.572;2023-02-12T02:45:10;22.80;;;14.70;;
19897;SDS011;10111;50.814;4.572;2023-02-12T02:50:37;23.30;;;14.83;;
19897;SDS011;10111;50.814;4.572;2023-02-12T02:53:50;25.63;;;15.70;;
19897;SDS011;10111;50.814;4.572;2023-02-12T02:55:57;24.63;;;15.63;;
19897;SDS011;10111;50.814;4.572;2023-02-12T02:58:31;25.47;;;16.00;;
19897;SDS011;10111;50.814;4.572;2023-02-12T03:01:14;24.00;;;16.10;;
19897;SDS011;10111;50.814;4.572;2023-02-12T03:06:27;26.70;;;15.40;;
19897;SDS011;10111;50.814;4.572;2023-02-12T03:09:04;23.10;;;14.50;;
19897;SDS011;10111;50.814;4.572;2023-02-12T03:11:36;25.03;;;14.90;;
19897;SDS011;10111;50.814;4.572;2023-02-12T03:14:13;22.97;;;15.57;;
19897;SDS011;10111;50.814;4.572;2023-02-12T03:16:53;23.87;;;15.63;;
19897;SDS011;10111;50.814;4.572;2023-02-12T03:19:39;24.47;;;15.07;;
19897;SDS011;10111;50.814;4.572;2023-02-12T03:22:13;23.40;;;14.07;;
19897;SDS011;10111;50.814;4.572;2023-02-12T03:24:53;25.70;;;16.17;;
19897;SDS011;10111;50.814;4.572;2023-02-12T03:27:22;23.10;;;14.37;;
19897;SDS011;10111;50.814;4.572;2023-02-12T03:29:53;22.67;;;14.50;;
19897;SDS011;10111;50.814;4.572;2023-02-12T03:40:36;24.67;;;15.40;;
19897;SDS011;10111;50.814;4.572;2023-02-12T03:43:06;23.70;;;15.60;;
19897;SDS011;10111;50.814;4.572;2023-02-12T03:45:49;24.17;;;16.17;;
19897;SDS011;10111;50.814;4.572;2023-02-12T03:53:29;26.57;;;15.60;;
19897;SDS011;10111;50.814;4.572;2023-02-12T03:56:01;28.27;;;15.90;;
19897;SDS011;10111;50.814;4.572;2023-02-12T03:58:33;26.40;;;14.87;;
19897;SDS011;10111;50.814;4.572;2023-02-12T04:01:01;24.77;;;15.93;;
19897;SDS011;10111;50.814;4.572;2023-02-12T04:03:28;29.17;;;15.77;;
19897;SDS011;10111;50.814;4.572;2023-02-12T04:05:54;29.00;;;17.10;;
19897;SDS011;10111;50.814;4.572;2023-02-12T04:08:20;27.83;;;16.20;;
19897;SDS011;10111;50.814;4.572;2023-02-12T04:13:42;28.17;;;16.27;;
19897;SDS011;10111;50.814;4.572;2023-02-12T04:16:19;22.17;;;14.80;;
19897;SDS011;10111;50.814;4.572;2023-02-12T04:18:54;24.83;;;16.00;;
19897;SDS011;10111;50.814;4.572;2023-02-12T04:26:46;22.93;;;15.67;;
19897;SDS011;10111;50.814;4.572;2023-02-12T04:29:25;26.67;;;16.77;;
19897;SDS011;10111;50.814;4.572;2023-02-12T04:37:09;30.23;;;16.30;;
19897;SDS011;10111;50.814;4.572;2023-02-12T04:39:38;29.33;;;17.40;;
19897;SDS011;10111;50.814;4.572;2023-02-12T04:42:05;23.77;;;15.60;;
19897;SDS011;10111;50.814;4.572;2023-02-12T04:44:32;23.33;;;16.27;;
19897;SDS011;10111;50.814;4.572;2023-02-12T04:47:01;25.90;;;15.60;;
19897;SDS011;10111;50.814;4.572;2023-02-12T04:49:27;29.30;;;17.73;;
19897;SDS011;10111;50.814;4.572;2023-02-12T04:51:52;27.67;;;16.40;;
19897;SDS011;10111;50.814;4.572;2023-02-12T04:54:19;27.17;;;16.37;;
19897;SDS011;10111;50.814;4.572;2023-02-12T04:56:46;40.10;;;20.10;;
19897;SDS011;10111;50.814;4.572;2023-02-12T04:59:12;33.00;;;18.80;;
19897;SDS011;10111;50.814;4.572;2023-02-12T05:01:39;32.03;;;18.10;;
19897;SDS011;10111;50.814;4.572;2023-02-12T05:04:05;29.67;;;18.20;;
19897;SDS011;10111;50.814;4.572;2023-02-12T05:06:35;28.53;;;18.07;;
19897;SDS011;10111;50.814;4.572;2023-02-12T05:09:02;27.03;;;18.00;;
19897;SDS011;10111;50.814;4.572;2023-02-12T05:11:28;29.80;;;18.67;;
19897;SDS011;10111;50.814;4.572;2023-02-12T05:13:53;28.67;;;17.90;;
19897;SDS011;10111;50.814;4.572;2023-02-12T05:16:19;28.00;;;17.97;;
19897;SDS011;10111;50.814;4.572;2023-02-12T05:18:46;29.17;;;17.27;;
19897;SDS011;10111;50.814;4.572;2023-02-12T05:21:12;26.63;;;16.63;;
19897;SDS011;10111;50.814;4.572;2023-02-12T05:23:38;29.40;;;18.37;;
19897;SDS011;10111;50.814;4.572;2023-02-12T05:26:06;26.70;;;16.57;;
19897;SDS011;10111;50.814;4.572;2023-02-12T05:28:34;28.10;;;16.47;;
19897;SDS011;10111;50.814;4.572;2023-02-12T05:31:01;27.60;;;16.87;;
19897;SDS011;10111;50.814;4.572;2023-02-12T05:33:30;28.37;;;16.47;;
19897;SDS011;10111;50.814;4.572;2023-02-12T05:36:30;31.10;;;17.97;;
19897;SDS011;10111;50.814;4.572;2023-02-12T05:38:49;31.17;;;18.27;;
19897;SDS011;10111;50.814;4.572;2023-02-12T05:41:16;25.90;;;16.63;;
19897;SDS011;10111;50.814;4.572;2023-02-12T05:43:44;27.53;;;17.17;;
19897;SDS011;10111;50.814;4.572;2023-02-12T05:46:10;28.70;;;17.30;;
19897;SDS011;10111;50.814;4.572;2023-02-12T05:48:36;24.77;;;16.77;;
19897;SDS011;10111;50.814;4.572;2023-02-12T05:51:04;25.93;;;17.37;;
19897;SDS011;10111;50.814;4.572;2023-02-12T05:53:30;27.03;;;16.57;;
19897;SDS011;10111;50.814;4.572;2023-02-12T05:56:11;24.30;;;15.83;;
19897;SDS011;10111;50.814;4.572;2023-02-12T05:58:39;31.63;;;17.13;;
19897;SDS011;10111;50.814;4.572;2023-02-12T06:01:11;26.50;;;16.77;;
19897;SDS011;10111;50.814;4.572;2023-02-12T06:03:39;25.13;;;16.47;;
19897;SDS011;10111;50.814;4.572;2023-02-12T06:06:05;30.70;;;18.27;;
19897;SDS011;10111;50.814;4.572;2023-02-12T06:08:31;27.27;;;16.63;;
19897;SDS011;10111;50.814;4.572;2023-02-12T06:11:00;28.20;;;17.47;;
19897;SDS011;10111;50.814;4.572;2023-02-12T06:13:28;28.23;;;16.90;;
19897;SDS011;10111;50.814;4.572;2023-02-12T06:15:54;32.43;;;18.97;;
19897;SDS011;10111;50.814;4.572;2023-02-12T06:18:20;32.43;;;18.93;;
19897;SDS011;10111;50.814;4.572;2023-02-12T06:20:46;30.97;;;17.67;;
19897;SDS011;10111;50.814;4.572;2023-02-12T06:23:12;29.03;;;17.10;;
19897;SDS011;10111;50.814;4.572;2023-02-12T06:25:38;31.67;;;17.80;;
19897;SDS011;10111;50.814;4.572;2023-02-12T06:28:03;48.00;;;26.57;;
19897;SDS011;10111;50.814;4.572;2023-02-12T06:30:29;43.53;;;24.53;;
19897;SDS011;10111;50.814;4.572;2023-02-12T06:32:55;40.23;;;22.53;;
19897;SDS011;10111;50.814;4.572;2023-02-12T06:35:21;40.03;;;23.17;;
19897;SDS011;10111;50.814;4.572;2023-02-12T06:37:47;36.10;;;20.80;;
19897;SDS011;10111;50.814;4.572;2023-02-12T06:40:13;32.30;;;20.10;;
19897;SDS011;10111;50.814;4.572;2023-02-12T06:42:38;30.20;;;18.83;;
19897;SDS011;10111;50.814;4.572;2023-02-12T06:45:04;29.07;;;18.53;;
19897;SDS011;10111;50.814;4.572;2023-02-12T06:47:30;33.73;;;18.87;;
19897;SDS011;10111;50.814;4.572;2023-02-12T06:49:55;31.27;;;19.10;;
19897;SDS011;10111;50.814;4.572;2023-02-12T06:52:21;29.03;;;17.87;;
19897;SDS011;10111;50.814;4.572;2023-02-12T06:54:47;31.50;;;20.03;;
19897;SDS011;10111;50.814;4.572;2023-02-12T06:57:12;35.77;;;20.93;;
19897;SDS011;10111;50.814;4.572;2023-02-12T06:59:38;32.07;;;19.47;;
19897;SDS011;10111;50.814;4.572;2023-02-12T07:02:04;33.67;;;18.23;;
19897;SDS011;10111;50.814;4.572;2023-02-12T07:04:29;32.57;;;18.87;;
19897;SDS011;10111;50.814;4.572;2023-02-12T07:06:55;30.50;;;19.10;;
19897;SDS011;10111;50.814;4.572;2023-02-12T07:09:21;34.97;;;19.30;;
19897;SDS011;10111;50.814;4.572;2023-02-12T07:11:46;28.93;;;18.33;;
19897;SDS011;10111;50.814;4.572;2023-02-12T07:14:13;30.40;;;18.27;;
19897;SDS011;10111;50.814;4.572;2023-02-12T07:16:39;32.63;;;19.87;;
19897;SDS011;10111;50.814;4.572;2023-02-12T07:19:05;30.27;;;18.33;;
19897;SDS011;10111;50.814;4.572;2023-02-12T07:21:31;29.73;;;16.53;;
19897;SDS011;10111;50.814;4.572;2023-02-12T07:23:57;27.63;;;15.67;;
19897;SDS011;10111;50.814;4.572;2023-02-12T07:26:22;29.80;;;18.30;;
19897;SDS011;10111;50.814;4.572;2023-02-12T07:28:48;30.27;;;17.97;;
19897;SDS011;10111;50.814;4.572;2023-02-12T07:31:16;34.53;;;18.90;;
19897;SDS011;10111;50.814;4.572;2023-02-12T07:33:46;30.37;;;18.43;;
19897;SDS011;10111;50.814;4.572;2023-02-12T07:36:14;34.70;;;19.50;;
19897;SDS011;10111;50.814;4.572;2023-02-12T07:38:40;31.67;;;18.77;;
19897;SDS011;10111;50.814;4.572;2023-02-12T07:41:07;30.97;;;18.17;;
19897;SDS011;10111;50.814;4.572;2023-02-12T07:43:36;35.37;;;19.77;;
19897;SDS011;10111;50.814;4.572;2023-02-12T07:46:07;33.63;;;19.17;;
19897;SDS011;10111;50.814;4.572;2023-02-12T07:48:35;30.90;;;19.73;;
19897;SDS011;10111;50.814;4.572;2023-02-12T07:51:02;31.57;;;19.43;;
19897;SDS011;10111;50.814;4.572;2023-02-12T07:53:29;35.40;;;18.50;;
19897;SDS011;10111;50.814;4.572;2023-02-12T07:55:55;27.53;;;17.70;;
19897;SDS011;10111;50.814;4.572;2023-02-12T07:58:39;33.43;;;19.10;;
19897;SDS011;10111;50.814;4.572;2023-02-12T08:01:49;30.17;;;17.47;;
19897;SDS011;10111;50.814;4.572;2023-02-12T08:03:57;33.33;;;18.13;;
19897;SDS011;10111;50.814;4.572;2023-02-12T08:06:25;32.53;;;19.73;;
19897;SDS011;10111;50.814;4.572;2023-02-12T08:08:53;30.87;;;18.40;;
19897;SDS011;10111;50.814;4.572;2023-02-12T08:11:20;30.13;;;18.00;;
19897;SDS011;10111;50.814;4.572;2023-02-12T08:13:46;31.33;;;18.80;;
19897;SDS011;10111;50.814;4.572;2023-02-12T08:16:13;28.03;;;18.03;;
19897;SDS011;10111;50.814;4.572;2023-02-12T08:18:40;26.87;;;17.50;;
19897;SDS011;10111;50.814;4.572;2023-02-12T08:21:10;25.47;;;17.07;;
19897;SDS011;10111;50.814;4.572;2023-02-12T08:23:40;29.23;;;17.77;;
19897;SDS011;10111;50.814;4.572;2023-02-12T08:26:13;26.40;;;15.97;;
19897;SDS011;10111;50.814;4.572;2023-02-12T08:28:42;26.87;;;17.07;;
19897;SDS011;10111;50.814;4.572;2023-02-12T08:31:14;31.27;;;17.17;;
19897;SDS011;10111;50.814;4.572;2023-02-12T08:33:44;24.73;;;15.40;;
19897;SDS011;10111;50.814;4.572;2023-02-12T08:36:12;30.00;;;18.20;;
19897;SDS011;10111;50.814;4.572;2023-02-12T08:38:39;28.90;;;16.20;;
19897;SDS011;10111;50.814;4.572;2023-02-12T08:41:10;26.97;;;16.87;;
19897;SDS011;10111;50.814;4.572;2023-02-12T08:43:40;29.30;;;17.80;;
19897;SDS011;10111;50.814;4.572;2023-02-12T08:48:36;33.20;;;18.90;;
19897;SDS011;10111;50.814;4.572;2023-02-12T08:51:08;30.50;;;18.17;;
19897;SDS011;10111;50.814;4.572;2023-02-12T08:53:35;31.23;;;18.03;;
19897;SDS011;10111;50.814;4.572;2023-02-12T08:56:02;24.50;;;15.93;;
19897;SDS011;10111;50.814;4.572;2023-02-12T08:58:28;29.07;;;17.03;;
19897;SDS011;10111;50.814;4.572;2023-02-12T09:00:54;29.70;;;17.07;;
19897;SDS011;10111;50.814;4.572;2023-02-12T09:03:20;27.53;;;17.03;;
19897;SDS011;10111;50.814;4.572;2023-02-12T09:05:46;28.90;;;16.67;;
19897;SDS011;10111;50.814;4.572;2023-02-12T09:08:12;27.17;;;17.10;;
19897;SDS011;10111;50.814;4.572;2023-02-12T09:10:38;28.30;;;17.33;;
19897;SDS011;10111;50.814;4.572;2023-02-12T09:13:06;27.67;;;17.80;;
19897;SDS011;10111;50.814;4.572;2023-02-12T09:15:35;29.83;;;18.37;;
19897;SDS011;10111;50.814;4.572;2023-02-12T09:18:02;29.23;;;17.43;;
19897;SDS011;10111;50.814;4.572;2023-02-12T09:20:28;33.90;;;19.03;;
19897;SDS011;10111;50.814;4.572;2023-02-12T09:22:54;34.50;;;20.63;;
19897;SDS011;10111;50.814;4.572;2023-02-12T09:25:21;29.67;;;18.70;;
19897;SDS011;10111;50.814;4.572;2023-02-12T09:27:47;25.83;;;17.00;;
19897;SDS011;10111;50.814;4.572;2023-02-12T09:30:13;33.87;;;21.57;;
19897;SDS011;10111;50.814;4.572;2023-02-12T09:32:39;33.63;;;20.67;;
19897;SDS011;10111;50.814;4.572;2023-02-12T09:35:04;40.53;;;23.30;;
19897;SDS011;10111;50.814;4.572;2023-02-12T09:37:30;30.37;;;18.40;;
19897;SDS011;10111;50.814;4.572;2023-02-12T09:39:56;31.73;;;19.50;;
19897;SDS011;10111;50.814;4.572;2023-02-12T09:42:35;30.73;;;19.13;;
19897;SDS011;10111;50.814;4.572;2023-02-12T09:47:52;31.80;;;18.30;;
19897;SDS011;10111;50.814;4.572;2023-02-12T09:53:09;31.63;;;18.70;;
19897;SDS011;10111;50.814;4.572;2023-02-12T09:55:38;30.73;;;20.70;;
19897;SDS011;10111;50.814;4.572;2023-02-12T09:58:06;36.43;;;20.97;;
19897;SDS011;10111;50.814;4.572;2023-02-12T10:00:39;36.03;;;21.03;;
19897;SDS011;10111;50.814;4.572;2023-02-12T10:03:10;34.17;;;20.00;;
19897;SDS011;10111;50.814;4.572;2023-02-12T10:05:44;38.23;;;21.90;;
19897;SDS011;10111;50.814;4.572;2023-02-12T10:13:47;34.77;;;21.30;;
19897;SDS011;10111;50.814;4.572;2023-02-12T10:22:27;34.87;;;20.90;;
19897;SDS011;10111;50.814;4.572;2023-02-12T10:27:55;32.87;;;21.23;;
19897;SDS011;10111;50.814;4.572;2023-02-12T10:32:58;31.20;;;19.07;;
19897;SDS011;10111;50.814;4.572;2023-02-12T10:35:28;35.27;;;20.63;;
19897;SDS011;10111;50.814;4.572;2023-02-12T10:40:31;32.47;;;20.47;;
19897;SDS011;10111;50.814;4.572;2023-02-12T10:42:58;30.50;;;18.80;;
19897;SDS011;10111;50.814;4.572;2023-02-12T10:45:29;33.97;;;20.73;;
19897;SDS011;10111;50.814;4.572;2023-02-12T10:53:25;37.20;;;21.63;;
19897;SDS011;10111;50.814;4.572;2023-02-12T10:56:11;33.20;;;18.67;;
19897;SDS011;10111;50.814;4.572;2023-02-12T10:58:39;29.20;;;17.27;;
19897;SDS011;10111;50.814;4.572;2023-02-12T11:01:14;29.13;;;18.40;;
19897;SDS011;10111;50.814;4.572;2023-02-12T11:03:43;30.40;;;16.93;;
19897;SDS011;10111;50.814;4.572;2023-02-12T11:06:19;27.03;;;14.77;;
19897;SDS011;10111;50.814;4.572;2023-02-12T11:08:47;29.80;;;16.73;;
19897;SDS011;10111;50.814;4.572;2023-02-12T11:11:13;28.70;;;16.53;;
19897;SDS011;10111;50.814;4.572;2023-02-12T11:13:43;33.97;;;16.37;;
19897;SDS011;10111;50.814;4.572;2023-02-12T11:16:12;27.43;;;15.83;;
19897;SDS011;10111;50.814;4.572;2023-02-12T11:18:41;26.50;;;14.77;;
19897;SDS011;10111;50.814;4.572;2023-02-12T11:21:07;23.03;;;14.93;;
19897;SDS011;10111;50.814;4.572;2023-02-12T11:23:39;23.43;;;14.43;;
19897;SDS011;10111;50.814;4.572;2023-02-12T11:31:31;29.87;;;16.27;;
19897;SDS011;10111;50.814;4.572;2023-02-12T11:34:07;28.97;;;16.60;;
19897;SDS011;10111;50.814;4.572;2023-02-12T11:36:36;26.03;;;15.53;;
19897;SDS011;10111;50.814;4.572;2023-02-12T11:39:10;24.73;;;15.83;;
19897;SDS011;10111;50.814;4.572;2023-02-12T11:41:43;25.00;;;15.17;;
19897;SDS011;10111;50.814;4.572;2023-02-12T11:44:09;28.13;;;17.03;;
19897;SDS011;10111;50.814;4.572;2023-02-12T11:46:48;30.33;;;17.93;;
19897;SDS011;10111;50.814;4.572;2023-02-12T11:49:22;27.67;;;15.97;;
19897;SDS011;10111;50.814;4.572;2023-02-12T11:51:51;26.97;;;16.97;;
19897;SDS011;10111;50.814;4.572;2023-02-12T11:54:18;28.27;;;15.83;;
19897;SDS011;10111;50.814;4.572;2023-02-12T11:56:48;25.93;;;16.47;;
19897;SDS011;10111;50.814;4.572;2023-02-12T12:02:03;28.30;;;15.90;;
19897;SDS011;10111;50.814;4.572;2023-02-12T12:04:52;29.17;;;18.20;;
19897;SDS011;10111;50.814;4.572;2023-02-12T12:07:24;38.43;;;20.70;;
19897;SDS011;10111;50.814;4.572;2023-02-12T12:09:59;28.23;;;16.67;;
19897;SDS011;10111;50.814;4.572;2023-02-12T12:15:16;27.63;;;15.67;;
19897;SDS011;10111;50.814;4.572;2023-02-12T12:21:19;23.07;;;13.63;;
19897;SDS011;10111;50.814;4.572;2023-02-12T12:24:01;29.53;;;14.80;;
19897;SDS011;10111;50.814;4.572;2023-02-12T12:26:52;23.90;;;14.30;;
19897;SDS011;10111;50.814;4.572;2023-02-12T12:32:15;35.93;;;16.73;;
19897;SDS011;10111;50.814;4.572;2023-02-12T12:34:45;27.50;;;15.20;;
19897;SDS011;10111;50.814;4.572;2023-02-12T12:40:10;34.03;;;19.63;;
19897;SDS011;10111;50.814;4.572;2023-02-12T12:46:21;42.87;;;21.27;;
19897;SDS011;10111;50.814;4.572;2023-02-12T12:57:13;37.60;;;18.43;;
19897;SDS011;10111;50.814;4.572;2023-02-12T13:05:44;27.93;;;17.47;;
19897;SDS011;10111;50.814;4.572;2023-02-12T13:18:34;32.10;;;18.93;;
19897;SDS011;10111;50.814;4.572;2023-02-12T13:23:55;35.97;;;18.57;;
19897;SDS011;10111;50.814;4.572;2023-02-12T13:26:24;33.13;;;17.43;;
19897;SDS011;10111;50.814;4.572;2023-02-12T13:29:11;26.60;;;16.40;;
19897;SDS011;10111;50.814;4.572;2023-02-12T13:31:50;28.53;;;16.63;;
19897;SDS011;10111;50.814;4.572;2023-02-12T13:34:56;26.03;;;14.53;;
19897;SDS011;10111;50.814;4.572;2023-02-12T13:37:34;28.37;;;15.33;;
19897;SDS011;10111;50.814;4.572;2023-02-12T13:40:16;23.27;;;14.17;;
19897;SDS011;10111;50.814;4.572;2023-02-12T13:51:00;27.77;;;15.53;;
19897;SDS011;10111;50.814;4.572;2023-02-12T13:58:53;30.37;;;17.20;;
19897;SDS011;10111;50.814;4.572;2023-02-12T14:01:58;30.87;;;17.20;;
19897;SDS011;10111;50.814;4.572;2023-02-12T14:06:53;25.40;;;16.07;;
19897;SDS011;10111;50.814;4.572;2023-02-12T14:09:28;30.20;;;15.23;;
19897;SDS011;10111;50.814;4.572;2023-02-12T14:14:50;30.47;;;16.70;;
19897;SDS011;10111;50.814;4.572;2023-02-12T14:20:04;26.50;;;15.70;;
19897;SDS011;10111;50.814;4.572;2023-02-12T14:27:53;24.57;;;14.40;;
19897;SDS011;10111;50.814;4.572;2023-02-12T14:30:36;24.80;;;13.87;;
19897;SDS011;10111;50.814;4.572;2023-02-12T14:35:39;23.40;;;13.80;;
19897;SDS011;10111;50.814;4.572;2023-02-12T14:40:44;24.87;;;15.70;;
19897;SDS011;10111;50.814;4.572;2023-02-12T14:43:28;23.90;;;14.63;;
19897;SDS011;10111;50.814;4.572;2023-02-12T14:45:58;24.83;;;15.23;;
19897;SDS011;10111;50.814;4.572;2023-02-12T14:49:02;25.07;;;14.33;;
19897;SDS011;10111;50.814;4.572;2023-02-12T14:51:42;25.40;;;14.27;;
19897;SDS011;10111;50.814;4.572;2023-02-12T14:54:14;27.83;;;15.17;;
19897;SDS011;10111;50.814;4.572;2023-02-12T14:56:50;24.93;;;14.33;;
19897;SDS011;10111;50.814;4.572;2023-02-12T14:59:20;25.83;;;15.20;;
19897;SDS011;10111;50.814;4.572;2023-02-12T15:01:48;26.57;;;15.03;;
19897;SDS011;10111;50.814;4.572;2023-02-12T15:04:58;28.37;;;16.40;;
19897;SDS011;10111;50.814;4.572;2023-02-12T15:07:09;24.97;;;13.70;;
19897;SDS011;10111;50.814;4.572;2023-02-12T15:09:44;25.03;;;13.93;;
19897;SDS011;10111;50.814;4.572;2023-02-12T15:12:29;25.63;;;14.13;;
19897;SDS011;10111;50.814;4.572;2023-02-12T15:17:59;25.13;;;14.67;;
19897;SDS011;10111;50.814;4.572;2023-02-12T15:20:37;26.93;;;14.93;;
19897;SDS011;10111;50.814;4.572;2023-02-12T15:23:38;23.20;;;14.23;;
19897;SDS011;10111;50.814;4.572;2023-02-12T15:26:12;25.17;;;13.03;;
19897;SDS011;10111;50.814;4.572;2023-02-12T15:28:40;25.87;;;15.27;;
19897;SDS011;10111;50.814;4.572;2023-02-12T15:31:09;26.60;;;15.77;;
19897;SDS011;10111;50.814;4.572;2023-02-12T15:33:44;31.63;;;14.37;;
19897;SDS011;10111;50.814;4.572;2023-02-12T15:36:15;26.57;;;15.23;;
19897;SDS011;10111;50.814;4.572;2023-02-12T15:38:43;24.93;;;15.03;;
19897;SDS011;10111;50.814;4.572;2023-02-12T15:41:24;28.20;;;16.90;;
19897;SDS011;10111;50.814;4.572;2023-02-12T15:43:50;29.13;;;14.97;;
19897;SDS011;10111;50.814;4.572;2023-02-12T15:46:16;25.10;;;15.30;;
19897;SDS011;10111;50.814;4.572;2023-02-12T15:48:42;30.63;;;16.20;;
19897;SDS011;10111;50.814;4.572;2023-02-12T15:51:32;27.17;;;16.87;;
19897;SDS011;10111;50.814;4.572;2023-02-12T15:53:58;22.80;;;13.70;;
19897;SDS011;10111;50.814;4.572;2023-02-12T15:56:25;25.03;;;15.10;;
19897;SDS011;10111;50.814;4.572;2023-02-12T16:01:20;27.20;;;15.50;;
19897;SDS011;10111;50.814;4.572;2023-02-12T16:03:51;27.33;;;15.10;;
19897;SDS011;10111;50.814;4.572;2023-02-12T16:06:19;27.57;;;16.37;;
19897;SDS011;10111;50.814;4.572;2023-02-12T16:08:48;28.23;;;17.53;;
19897;SDS011;10111;50.814;4.572;2023-02-12T16:11:20;32.30;;;17.30;;
19897;SDS011;10111;50.814;4.572;2023-02-12T16:16:24;27.73;;;14.97;;
19897;SDS011;10111;50.814;4.572;2023-02-12T16:21:28;28.80;;;15.37;;
19897;SDS011;10111;50.814;4.572;2023-02-12T16:23:54;31.67;;;17.60;;
19897;SDS011;10111;50.814;4.572;2023-02-12T16:26:21;32.80;;;20.20;;
19897;SDS011;10111;50.814;4.572;2023-02-12T16:28:53;64.20;;;37.30;;
19897;SDS011;10111;50.814;4.572;2023-02-12T16:31:21;40.50;;;28.00;;
19897;SDS011;10111;50.814;4.572;2023-02-12T16:33:55;36.47;;;21.03;;
19897;SDS011;10111;50.814;4.572;2023-02-12T16:38:49;31.47;;;18.70;;
19897;SDS011;10111;50.814;4.572;2023-02-12T16:41:33;33.67;;;19.10;;
19897;SDS011;10111;50.814;4.572;2023-02-12T16:46:44;32.47;;;19.20;;
19897;SDS011;10111;50.814;4.572;2023-02-12T16:49:15;32.23;;;18.43;;
19897;SDS011;10111;50.814;4.572;2023-02-12T16:51:43;38.90;;;20.50;;
19897;SDS011;10111;50.814;4.572;2023-02-12T16:56:51;37.10;;;18.77;;
19897;SDS011;10111;50.814;4.572;2023-02-12T16:59:17;35.40;;;19.97;;
19897;SDS011;10111;50.814;4.572;2023-02-12T17:01:43;42.63;;;20.13;;
19897;SDS011;10111;50.814;4.572;2023-02-12T17:04:21;32.97;;;18.33;;
19897;SDS011;10111;50.814;4.572;2023-02-12T17:06:47;36.27;;;18.27;;
19897;SDS011;10111;50.814;4.572;2023-02-12T17:09:12;36.27;;;17.17;;
19897;SDS011;10111;50.814;4.572;2023-02-12T17:11:38;33.60;;;18.13;;
19897;SDS011;10111;50.814;4.572;2023-02-12T17:14:04;35.87;;;17.67;;
19897;SDS011;10111;50.814;4.572;2023-02-12T17:16:30;38.50;;;20.20;;
19897;SDS011;10111;50.814;4.572;2023-02-12T17:18:55;33.83;;;20.00;;
19897;SDS011;10111;50.814;4.572;2023-02-12T17:23:54;32.40;;;17.13;;
19897;SDS011;10111;50.814;4.572;2023-02-12T17:26:21;31.30;;;19.20;;
19897;SDS011;10111;50.814;4.572;2023-02-12T17:28:48;39.40;;;20.17;;
19897;SDS011;10111;50.814;4.572;2023-02-12T17:31:14;32.33;;;19.33;;
19897;SDS011;10111;50.814;4.572;2023-02-12T17:33:39;33.20;;;19.17;;
19897;SDS011;10111;50.814;4.572;2023-02-12T17:36:05;43.23;;;25.83;;
19897;SDS011;10111;50.814;4.572;2023-02-12T17:38:31;36.73;;;21.17;;
19897;SDS011;10111;50.814;4.572;2023-02-12T17:40:57;35.80;;;20.77;;
19897;SDS011;10111;50.814;4.572;2023-02-12T17:43:23;35.47;;;19.93;;
19897;SDS011;10111;50.814;4.572;2023-02-12T17:45:48;36.67;;;20.83;;